Logo AVAMET
Benvolgut visitant, si us plau, ingressa Recuperar contrasenya

Oriola R. de Bonanza

Dades diàries. Acumulats / Últims 30 dies disponibles

Data Temperatura (°C) Humitat rel. (%) Pressió rel. (hPa) Vent (km/h) Precipitació
Mínima Mitjana Màxima Amplitud
tèrmica
Mínima Mitjana Màxima Mínima Mitjana Màxima Predom. Mitjana Ràfega
màxima
Total
(mm)
Índex-n
Mínima Mitjana Màxima Mínima Mitjana Màxima n
0 a 1
P0 max
mm 5'
Dades mensuals acumulades fins l'últim dia disponible
12/2019 8,5 11,5 13,3 13,6 14,3 16,2 19,8 11,3 55 79 93 1.004 1.010 1.015   8,5 66,0 42,0
Dades anuals acumulades fins l'últim dia disponible
2019 4,1 15,3 26,4 20,4 13,6 26,0 41,8 37,7 15 65 97 995 1.016 1.035   4,8 77,2 760,2
Últims 30 dies disponibles
04-12-2019 12,4     13,2     14,3 1,9 69 76 81 1.004 1.005 1.008 O 12,3 56,3 6,2 0,61 1,60
03-12-2019 11,9     12,9     14,6 2,7 68 81 87 1.011 1.013 1.015 SSE 13,9 66,0 22,6 0,81 4,60
02-12-2019 13,3     14,7     15,9 2,6 72 78 89 1.010 1.012 1.015 SE 6,4 32,2 13,2 0,69 6,90
01-12-2019 8,5     13,7     19,8 11,3 55 80 93 1.009 1.012 1.015 SSO 1,2 22,5 0,0
30-11-2019 11,7     15,8     21,3 9,6 57 75 89 1.015 1.019 1.022 SSO 2,1 27,4 0,0
29-11-2019 11,8     18,0     22,6 10,8 52 61 80 1.017 1.019 1.021 SSO 6,0 48,3 0,0
28-11-2019 10,8     16,1     20,5 9,7 48 61 79 1.015 1.017 1.019 SSO 3,4 37,0 0,0
27-11-2019 11,2     17,0     22,7 11,5 43 66 92 1.010 1.012 1.015 SO 4,8 43,5 0,0
26-11-2019 9,8     16,4     22,2 12,4 53 71 89 1.011 1.014 1.016 SSO 2,5 29,0 0,0
25-11-2019 11,3     17,4     21,7 10,4 54 60 75 1.013 1.014 1.016 SSO 6,5 57,9 0,0
24-11-2019 13,0     14,6     17,0 4,0 47 52 57 1.010 1.013 1.015 SSO 11,0 54,7 0,0
23-11-2019 11,1     15,3     17,6 6,5 38 56 93 995 1.000 1.009 S 10,4 64,4 0,2
22-11-2019 8,7     11,8     14,6 5,9 84 92 95 996 1.003 1.009 SSO 0,7 12,9 10,2 0,29 1,20
21-11-2019 7,4     11,6     15,2 7,8 69 82 93 1.008 1.010 1.011 SSO 0,7 16,1 0,2
20-11-2019 5,4     11,1     16,6 11,2 58 75 88 1.010 1.012 1.016 SSO 0,3 12,9 0,4
19-11-2019 8,6     12,5     16,2 7,6 43 55 76 1.015 1.016 1.018 SO 4,9 41,8 0,0
18-11-2019 10,4     13,3     16,6 6,2 45 61 92 1.007 1.011 1.017 SO 6,2 40,2 1,8
17-11-2019 6,1     12,3     17,1 11,0 39 54 73 1.010 1.014 1.016 SSE 5,5 45,1 0,0
16-11-2019 7,6     12,3     15,2 7,6 36 49 68 1.007 1.012 1.016 SSO 7,3 40,2 0,0
15-11-2019 10,1     12,5     14,7 4,6 42 52 64 1.002 1.005 1.007 SO 8,7 45,1 0,0
14-11-2019 10,6     13,5     17,5 6,9 46 67 91 1.001 1.004 1.011 S 5,0 64,4 0,0
13-11-2019 11,1     17,3     23,2 12,1 45 57 82 1.007 1.009 1.012 SSO 3,7 57,9 0,0
12-11-2019 12,3     15,7     19,2 6,9 35 44 57 1.010 1.012 1.014 SO 9,6 48,3 0,0
11-11-2019 10,9     14,4     17,9 7,0 42 50 59 1.011 1.014 1.016 SO 8,1 48,3 0,0
10-11-2019 11,7     15,2     17,1 5,4 34 48 75 1.011 1.013 1.015 S 9,4 56,3 0,0
09-11-2019 13,1     15,5     19,6 6,5 33 47 71 1.015 1.018 1.021 SO 10,8 74,0 0,0
08-11-2019 12,7     15,1     17,4 4,7 36 45 59 1.011 1.014 1.019 SO 11,1 53,1 0,0
07-11-2019 9,3     16,2     21,7 12,4 42 56 76 1.008 1.011 1.014 S 6,4 53,1 0,0
06-11-2019 13,2     17,4     20,8 7,6 37 49 63 1.013 1.014 1.016 SO 8,2 38,6 0,0
05-11-2019 16,2     18,6     20,3 4,1 40 50 70 1.007 1.011 1.015 S 9,6 51,5 0,0
Últims 13 mesos disponibles
11/2019 5,4 11,7 20,1 16,0 14,6 19,8 28,4 23,0 44 58 92 1.000 1.012 1.019 SSO 6,4 77,2 12,8
10/2019 10,4 15,5 21,1 20,5 16,9 26,4 34,6 24,2 45 70 86 1.009 1.017 1.022 S 2,8 58,0 26,8
09/2019 15,9 20,2 23,9 24,3 22,2 29,1 34,3 18,4 46 74 86 1.010 1.017 1.022 S 4,1 69,0 503,4
08/2019 19,1 22,2 25,2 27,3 28,8 33,2 41,8 22,7 47 69 79 1.011 1.016 1.020 SE 4,6 60,0 16,2
07/2019 20,4 22,6 26,4 27,9 29,4 33,6 39,8 19,4 36 60 75 1.006 1.014 1.020 SE 5,7 52,0 0,2
06/2019 13,4 18,0 22,7 24,2 24,2 30,1 35,9 22,5 38 59 73 1.009 1.015 1.022 SSE 5,6 50,0 0,6
05/2019 11,2 14,9 21,4 20,3 21,7 26,2 32,2 21,0 45 63 74 1.006 1.015 1.025 SSE 5,0 63,0 4,0
04/2019 8,6 12,0 15,0 16,4 14,6 21,5 28,8 20,2 44 64 89 1.000 1.013 1.025 S 5,6 69,0 127,2
03/2019 4,4 8,5 13,1 14,5 13,6 21,0 28,2 23,8 37 63 88 1.011 1.023 1.031 S 3,8 52,0 26,6
02/2019 4,1 6,8 11,1 12,7 14,5 19,6 27,1 23,0 34 63 79 997 1.025 1.033 SSO 3,7 66,0 0,4
Tots els anys disponibles
Temperatura (°C)
Humitat relativa (%)
Velocitat del vent i ràfega màxima (km/h)
Direcció del vent (°)
Pressió (hPa)
Precipitació (mm)
Nota sobre les dades: s'avisa a l'usuari de la provisionalitat i no oficialitat d'aquestes dades
Logo AVAMET blanc
Web allotjada a Sollutia
Llicència de Creative CommonsLa web d'AVAMET i els seus continguts estan subjectes a una llicència de
Reconeixement - No Comercial - Compartir igual
Últimes estacions: Aielo de Malferit - Centre (Soci), Faura (Inforatge), Benifairó de les Valls (Inforatge), Xàbia - Les Valls (Soci), Xàbia - Alt de la Granadella (Soci), Villena - Sierra de Salinas (Soci), Sueca - Centre (Inforatge) - - -